<?xml version="1.0" encoding="UTF-8" standalone="no" ?>
<gpx xmlns="http://www.topografix.com/GPX/1/1" xmlns:xsi="http://www.w3.org/2001/XMLSchema-instance" xsi:schemaLocation="http://www.topografix.com/GPX/1/1 http://www.topografix.com/GPX/1/1/gpx.xsd" version="1.1" creator="VisuGPX - https://www.visugpx.com">
  <metadata>
    <name>Sortie pédestre du 17-09-2013</name>
    <desc><![CDATA[Petit jogging tranquille à Ludiès enregistrer avec Runkeeper]]></desc>
  </metadata>
  <trk>
    <name><![CDATA[Running 9/17/13 12:59 pm]]></name>
    <trkseg>
      <trkpt lat="45.37042" lon="2.41513">
        <ele>612</ele>
        <time>2013-09-17T12:59:06Z</time>
      </trkpt>
      <trkpt lat="45.37041" lon="2.41514">
        <ele>612</ele>
        <time>2013-09-17T12:59:06Z</time>
      </trkpt>
      <trkpt lat="45.37031" lon="2.41513">
        <ele>612</ele>
        <time>2013-09-17T12:59:21Z</time>
      </trkpt>
      <trkpt lat="45.37024" lon="2.41507">
        <ele>612</ele>
        <time>2013-09-17T12:59:28Z</time>
      </trkpt>
      <trkpt lat="45.37015" lon="2.41504">
        <ele>612</ele>
        <time>2013-09-17T12:59:35Z</time>
      </trkpt>
      <trkpt lat="45.37005" lon="2.41501">
        <ele>612.2</ele>
        <time>2013-09-17T12:59:40Z</time>
      </trkpt>
      <trkpt lat="45.36996" lon="2.41498">
        <ele>612.4</ele>
        <time>2013-09-17T12:59:45Z</time>
      </trkpt>
      <trkpt lat="45.36988" lon="2.41495">
        <ele>612.5</ele>
        <time>2013-09-17T12:59:49Z</time>
      </trkpt>
      <trkpt lat="45.36977" lon="2.41492">
        <ele>612.7</ele>
        <time>2013-09-17T12:59:54Z</time>
      </trkpt>
      <trkpt lat="45.36968" lon="2.41487">
        <ele>612.9</ele>
        <time>2013-09-17T12:59:59Z</time>
      </trkpt>
      <trkpt lat="45.36959" lon="2.41483">
        <ele>613.1</ele>
        <time>2013-09-17T13:00:03Z</time>
      </trkpt>
      <trkpt lat="45.3695" lon="2.41478">
        <ele>613.2</ele>
        <time>2013-09-17T13:00:08Z</time>
      </trkpt>
      <trkpt lat="45.3694" lon="2.41472">
        <ele>613.3</ele>
        <time>2013-09-17T13:00:13Z</time>
      </trkpt>
      <trkpt lat="45.36931" lon="2.41467">
        <ele>613.4</ele>
        <time>2013-09-17T13:00:18Z</time>
      </trkpt>
      <trkpt lat="45.36923" lon="2.41463">
        <ele>613.5</ele>
        <time>2013-09-17T13:00:24Z</time>
      </trkpt>
      <trkpt lat="45.36914" lon="2.41459">
        <ele>613.7</ele>
        <time>2013-09-17T13:00:28Z</time>
      </trkpt>
      <trkpt lat="45.36904" lon="2.41454">
        <ele>613.8</ele>
        <time>2013-09-17T13:00:33Z</time>
      </trkpt>
      <trkpt lat="45.36894" lon="2.41449">
        <ele>613.9</ele>
        <time>2013-09-17T13:00:38Z</time>
      </trkpt>
      <trkpt lat="45.36886" lon="2.41444">
        <ele>614</ele>
        <time>2013-09-17T13:00:44Z</time>
      </trkpt>
      <trkpt lat="45.36877" lon="2.4144">
        <ele>614.1</ele>
        <time>2013-09-17T13:00:48Z</time>
      </trkpt>
      <trkpt lat="45.36869" lon="2.41434">
        <ele>614.2</ele>
        <time>2013-09-17T13:00:53Z</time>
      </trkpt>
      <trkpt lat="45.36861" lon="2.41429">
        <ele>614.3</ele>
        <time>2013-09-17T13:00:57Z</time>
      </trkpt>
      <trkpt lat="45.36853" lon="2.41423">
        <ele>614.5</ele>
        <time>2013-09-17T13:01:01Z</time>
      </trkpt>
      <trkpt lat="45.36844" lon="2.41416">
        <ele>614.7</ele>
        <time>2013-09-17T13:01:06Z</time>
      </trkpt>
      <trkpt lat="45.36835" lon="2.41409">
        <ele>615</ele>
        <time>2013-09-17T13:01:11Z</time>
      </trkpt>
      <trkpt lat="45.36826" lon="2.41398">
        <ele>615.3</ele>
        <time>2013-09-17T13:01:17Z</time>
      </trkpt>
      <trkpt lat="45.3682" lon="2.4139">
        <ele>615.4</ele>
        <time>2013-09-17T13:01:21Z</time>
      </trkpt>
      <trkpt lat="45.36814" lon="2.41379">
        <ele>615.9</ele>
        <time>2013-09-17T13:01:26Z</time>
      </trkpt>
      <trkpt lat="45.3681" lon="2.41368">
        <ele>616.5</ele>
        <time>2013-09-17T13:01:31Z</time>
      </trkpt>
      <trkpt lat="45.36805" lon="2.41357">
        <ele>617</ele>
        <time>2013-09-17T13:01:35Z</time>
      </trkpt>
      <trkpt lat="45.36801" lon="2.41344">
        <ele>617.9</ele>
        <time>2013-09-17T13:01:41Z</time>
      </trkpt>
      <trkpt lat="45.36798" lon="2.4133">
        <ele>618.8</ele>
        <time>2013-09-17T13:01:45Z</time>
      </trkpt>
      <trkpt lat="45.36793" lon="2.41318">
        <ele>619.7</ele>
        <time>2013-09-17T13:01:50Z</time>
      </trkpt>
      <trkpt lat="45.36791" lon="2.41307">
        <ele>620.6</ele>
        <time>2013-09-17T13:01:55Z</time>
      </trkpt>
      <trkpt lat="45.36785" lon="2.41295">
        <ele>621.5</ele>
        <time>2013-09-17T13:02:00Z</time>
      </trkpt>
      <trkpt lat="45.36782" lon="2.41283">
        <ele>622.3</ele>
        <time>2013-09-17T13:02:06Z</time>
      </trkpt>
      <trkpt lat="45.36777" lon="2.41273">
        <ele>623.1</ele>
        <time>2013-09-17T13:02:10Z</time>
      </trkpt>
      <trkpt lat="45.36773" lon="2.41261">
        <ele>623.6</ele>
        <time>2013-09-17T13:02:15Z</time>
      </trkpt>
      <trkpt lat="45.36767" lon="2.4125">
        <ele>623.7</ele>
        <time>2013-09-17T13:02:20Z</time>
      </trkpt>
      <trkpt lat="45.36762" lon="2.41239">
        <ele>623.8</ele>
        <time>2013-09-17T13:02:25Z</time>
      </trkpt>
      <trkpt lat="45.36759" lon="2.41228">
        <ele>623.9</ele>
        <time>2013-09-17T13:02:30Z</time>
      </trkpt>
      <trkpt lat="45.36755" lon="2.41216">
        <ele>623.6</ele>
        <time>2013-09-17T13:02:36Z</time>
      </trkpt>
      <trkpt lat="45.3675" lon="2.41206">
        <ele>623.4</ele>
        <time>2013-09-17T13:02:40Z</time>
      </trkpt>
      <trkpt lat="45.36745" lon="2.41195">
        <ele>623.1</ele>
        <time>2013-09-17T13:02:44Z</time>
      </trkpt>
      <trkpt lat="45.36741" lon="2.41184">
        <ele>622.9</ele>
        <time>2013-09-17T13:02:49Z</time>
      </trkpt>
      <trkpt lat="45.36735" lon="2.41172">
        <ele>622.7</ele>
        <time>2013-09-17T13:02:54Z</time>
      </trkpt>
      <trkpt lat="45.36731" lon="2.41161">
        <ele>622.8</ele>
        <time>2013-09-17T13:02:58Z</time>
      </trkpt>
      <trkpt lat="45.36727" lon="2.41148">
        <ele>622.9</ele>
        <time>2013-09-17T13:03:02Z</time>
      </trkpt>
      <trkpt lat="45.36723" lon="2.41138">
        <ele>623.3</ele>
        <time>2013-09-17T13:03:06Z</time>
      </trkpt>
      <trkpt lat="45.36719" lon="2.41125">
        <ele>623.6</ele>
        <time>2013-09-17T13:03:11Z</time>
      </trkpt>
      <trkpt lat="45.36714" lon="2.41113">
        <ele>624</ele>
        <time>2013-09-17T13:03:15Z</time>
      </trkpt>
      <trkpt lat="45.36709" lon="2.411">
        <ele>624.7</ele>
        <time>2013-09-17T13:03:20Z</time>
      </trkpt>
      <trkpt lat="45.36706" lon="2.41089">
        <ele>625.5</ele>
        <time>2013-09-17T13:03:24Z</time>
      </trkpt>
      <trkpt lat="45.36703" lon="2.41076">
        <ele>625.9</ele>
        <time>2013-09-17T13:03:29Z</time>
      </trkpt>
      <trkpt lat="45.36702" lon="2.41063">
        <ele>626.4</ele>
        <time>2013-09-17T13:03:33Z</time>
      </trkpt>
      <trkpt lat="45.36701" lon="2.41049">
        <ele>626.7</ele>
        <time>2013-09-17T13:03:38Z</time>
      </trkpt>
      <trkpt lat="45.36704" lon="2.41035">
        <ele>627.1</ele>
        <time>2013-09-17T13:03:43Z</time>
      </trkpt>
      <trkpt lat="45.36711" lon="2.41025">
        <ele>627.5</ele>
        <time>2013-09-17T13:03:47Z</time>
      </trkpt>
      <trkpt lat="45.36716" lon="2.41015">
        <ele>627.8</ele>
        <time>2013-09-17T13:03:51Z</time>
      </trkpt>
      <trkpt lat="45.3672" lon="2.41003">
        <ele>628.2</ele>
        <time>2013-09-17T13:03:56Z</time>
      </trkpt>
      <trkpt lat="45.36725" lon="2.4099">
        <ele>628.5</ele>
        <time>2013-09-17T13:04:02Z</time>
      </trkpt>
      <trkpt lat="45.36729" lon="2.40976">
        <ele>628.9</ele>
        <time>2013-09-17T13:04:07Z</time>
      </trkpt>
      <trkpt lat="45.36729" lon="2.40963">
        <ele>628.9</ele>
        <time>2013-09-17T13:04:12Z</time>
      </trkpt>
      <trkpt lat="45.36732" lon="2.40951">
        <ele>628.9</ele>
        <time>2013-09-17T13:04:16Z</time>
      </trkpt>
      <trkpt lat="45.36736" lon="2.4094">
        <ele>629.2</ele>
        <time>2013-09-17T13:04:20Z</time>
      </trkpt>
      <trkpt lat="45.3674" lon="2.40929">
        <ele>629.6</ele>
        <time>2013-09-17T13:04:25Z</time>
      </trkpt>
      <trkpt lat="45.36745" lon="2.4092">
        <ele>630.1</ele>
        <time>2013-09-17T13:04:28Z</time>
      </trkpt>
      <trkpt lat="45.3675" lon="2.40909">
        <ele>630.5</ele>
        <time>2013-09-17T13:04:32Z</time>
      </trkpt>
      <trkpt lat="45.36755" lon="2.40898">
        <ele>630.7</ele>
        <time>2013-09-17T13:04:37Z</time>
      </trkpt>
      <trkpt lat="45.3676" lon="2.40887">
        <ele>630.9</ele>
        <time>2013-09-17T13:04:42Z</time>
      </trkpt>
      <trkpt lat="45.36767" lon="2.40877">
        <ele>630.7</ele>
        <time>2013-09-17T13:04:46Z</time>
      </trkpt>
      <trkpt lat="45.36773" lon="2.4087">
        <ele>630.5</ele>
        <time>2013-09-17T13:04:50Z</time>
      </trkpt>
      <trkpt lat="45.36778" lon="2.4086">
        <ele>630.4</ele>
        <time>2013-09-17T13:04:54Z</time>
      </trkpt>
      <trkpt lat="45.36783" lon="2.40849">
        <ele>630.2</ele>
        <time>2013-09-17T13:04:58Z</time>
      </trkpt>
      <trkpt lat="45.3679" lon="2.40843">
        <ele>630.2</ele>
        <time>2013-09-17T13:05:03Z</time>
      </trkpt>
      <trkpt lat="45.36797" lon="2.40832">
        <ele>630.2</ele>
        <time>2013-09-17T13:05:08Z</time>
      </trkpt>
      <trkpt lat="45.36802" lon="2.40823">
        <ele>630</ele>
        <time>2013-09-17T13:05:14Z</time>
      </trkpt>
      <trkpt lat="45.3681" lon="2.40817">
        <ele>629.8</ele>
        <time>2013-09-17T13:05:18Z</time>
      </trkpt>
      <trkpt lat="45.36818" lon="2.40809">
        <ele>629.6</ele>
        <time>2013-09-17T13:05:23Z</time>
      </trkpt>
      <trkpt lat="45.36826" lon="2.40801">
        <ele>629.5</ele>
        <time>2013-09-17T13:05:27Z</time>
      </trkpt>
      <trkpt lat="45.36834" lon="2.40794">
        <ele>629.3</ele>
        <time>2013-09-17T13:05:31Z</time>
      </trkpt>
      <trkpt lat="45.36842" lon="2.40787">
        <ele>629.5</ele>
        <time>2013-09-17T13:05:36Z</time>
      </trkpt>
      <trkpt lat="45.36848" lon="2.40779">
        <ele>629.6</ele>
        <time>2013-09-17T13:05:40Z</time>
      </trkpt>
      <trkpt lat="45.36856" lon="2.40774">
        <ele>629.8</ele>
        <time>2013-09-17T13:05:46Z</time>
      </trkpt>
      <trkpt lat="45.36863" lon="2.40768">
        <ele>630</ele>
        <time>2013-09-17T13:05:52Z</time>
      </trkpt>
      <trkpt lat="45.36871" lon="2.40765">
        <ele>630</ele>
        <time>2013-09-17T13:05:57Z</time>
      </trkpt>
      <trkpt lat="45.36879" lon="2.4076">
        <ele>630</ele>
        <time>2013-09-17T13:06:02Z</time>
      </trkpt>
      <trkpt lat="45.36888" lon="2.40756">
        <ele>630</ele>
        <time>2013-09-17T13:06:06Z</time>
      </trkpt>
      <trkpt lat="45.36896" lon="2.40752">
        <ele>630</ele>
        <time>2013-09-17T13:06:10Z</time>
      </trkpt>
      <trkpt lat="45.36905" lon="2.40749">
        <ele>630</ele>
        <time>2013-09-17T13:06:15Z</time>
      </trkpt>
      <trkpt lat="45.36914" lon="2.40746">
        <ele>630</ele>
        <time>2013-09-17T13:06:20Z</time>
      </trkpt>
      <trkpt lat="45.36922" lon="2.40742">
        <ele>629.6</ele>
        <time>2013-09-17T13:06:24Z</time>
      </trkpt>
      <trkpt lat="45.36932" lon="2.40738">
        <ele>629.5</ele>
        <time>2013-09-17T13:06:28Z</time>
      </trkpt>
      <trkpt lat="45.36941" lon="2.40735">
        <ele>629.3</ele>
        <time>2013-09-17T13:06:33Z</time>
      </trkpt>
      <trkpt lat="45.3695" lon="2.4073">
        <ele>629.1</ele>
        <time>2013-09-17T13:06:38Z</time>
      </trkpt>
      <trkpt lat="45.36958" lon="2.40726">
        <ele>628.9</ele>
        <time>2013-09-17T13:06:42Z</time>
      </trkpt>
      <trkpt lat="45.36966" lon="2.40723">
        <ele>628.7</ele>
        <time>2013-09-17T13:06:45Z</time>
      </trkpt>
      <trkpt lat="45.36976" lon="2.40719">
        <ele>628.5</ele>
        <time>2013-09-17T13:06:49Z</time>
      </trkpt>
      <trkpt lat="45.36984" lon="2.40714">
        <ele>628.4</ele>
        <time>2013-09-17T13:06:52Z</time>
      </trkpt>
      <trkpt lat="45.36993" lon="2.40711">
        <ele>628.2</ele>
        <time>2013-09-17T13:06:55Z</time>
      </trkpt>
      <trkpt lat="45.37002" lon="2.40709">
        <ele>627.6</ele>
        <time>2013-09-17T13:06:58Z</time>
      </trkpt>
      <trkpt lat="45.3701" lon="2.40705">
        <ele>627.1</ele>
        <time>2013-09-17T13:07:05Z</time>
      </trkpt>
      <trkpt lat="45.37019" lon="2.40707">
        <ele>626.9</ele>
        <time>2013-09-17T13:07:09Z</time>
      </trkpt>
      <trkpt lat="45.37029" lon="2.40709">
        <ele>626.5</ele>
        <time>2013-09-17T13:07:14Z</time>
      </trkpt>
      <trkpt lat="45.37038" lon="2.4071">
        <ele>626.2</ele>
        <time>2013-09-17T13:07:19Z</time>
      </trkpt>
      <trkpt lat="45.37048" lon="2.40711">
        <ele>625.9</ele>
        <time>2013-09-17T13:07:25Z</time>
      </trkpt>
      <trkpt lat="45.37058" lon="2.40713">
        <ele>625.6</ele>
        <time>2013-09-17T13:07:29Z</time>
      </trkpt>
      <trkpt lat="45.37068" lon="2.40714">
        <ele>625.4</ele>
        <time>2013-09-17T13:07:33Z</time>
      </trkpt>
      <trkpt lat="45.37077" lon="2.40716">
        <ele>625.1</ele>
        <time>2013-09-17T13:07:37Z</time>
      </trkpt>
      <trkpt lat="45.37085" lon="2.40718">
        <ele>624.9</ele>
        <time>2013-09-17T13:07:40Z</time>
      </trkpt>
      <trkpt lat="45.37094" lon="2.4072">
        <ele>624.7</ele>
        <time>2013-09-17T13:07:44Z</time>
      </trkpt>
      <trkpt lat="45.37102" lon="2.40721">
        <ele>624.9</ele>
        <time>2013-09-17T13:07:48Z</time>
      </trkpt>
      <trkpt lat="45.37111" lon="2.40723">
        <ele>625.1</ele>
        <time>2013-09-17T13:07:52Z</time>
      </trkpt>
      <trkpt lat="45.37119" lon="2.40725">
        <ele>625.3</ele>
        <time>2013-09-17T13:07:56Z</time>
      </trkpt>
      <trkpt lat="45.37129" lon="2.40725">
        <ele>625.5</ele>
        <time>2013-09-17T13:08:00Z</time>
      </trkpt>
      <trkpt lat="45.37137" lon="2.40727">
        <ele>625.6</ele>
        <time>2013-09-17T13:08:04Z</time>
      </trkpt>
      <trkpt lat="45.37146" lon="2.40731">
        <ele>625.7</ele>
        <time>2013-09-17T13:08:08Z</time>
      </trkpt>
      <trkpt lat="45.37154" lon="2.40736">
        <ele>625.8</ele>
        <time>2013-09-17T13:08:13Z</time>
      </trkpt>
      <trkpt lat="45.37164" lon="2.40738">
        <ele>625.9</ele>
        <time>2013-09-17T13:08:17Z</time>
      </trkpt>
      <trkpt lat="45.37172" lon="2.4074">
        <ele>626.3</ele>
        <time>2013-09-17T13:08:21Z</time>
      </trkpt>
      <trkpt lat="45.37182" lon="2.40742">
        <ele>626.5</ele>
        <time>2013-09-17T13:08:26Z</time>
      </trkpt>
      <trkpt lat="45.37191" lon="2.40743">
        <ele>626.8</ele>
        <time>2013-09-17T13:08:30Z</time>
      </trkpt>
      <trkpt lat="45.372" lon="2.40744">
        <ele>627.1</ele>
        <time>2013-09-17T13:08:34Z</time>
      </trkpt>
      <trkpt lat="45.37208" lon="2.40745">
        <ele>627.4</ele>
        <time>2013-09-17T13:08:38Z</time>
      </trkpt>
      <trkpt lat="45.37217" lon="2.40746">
        <ele>627.6</ele>
        <time>2013-09-17T13:08:43Z</time>
      </trkpt>
      <trkpt lat="45.37227" lon="2.40746">
        <ele>627.9</ele>
        <time>2013-09-17T13:08:48Z</time>
      </trkpt>
      <trkpt lat="45.37237" lon="2.40748">
        <ele>628.2</ele>
        <time>2013-09-17T13:08:53Z</time>
      </trkpt>
      <trkpt lat="45.37245" lon="2.40748">
        <ele>628.5</ele>
        <time>2013-09-17T13:08:58Z</time>
      </trkpt>
      <trkpt lat="45.37255" lon="2.40748">
        <ele>628.8</ele>
        <time>2013-09-17T13:09:03Z</time>
      </trkpt>
      <trkpt lat="45.37264" lon="2.40748">
        <ele>629.2</ele>
        <time>2013-09-17T13:09:09Z</time>
      </trkpt>
      <trkpt lat="45.37275" lon="2.40747">
        <ele>629.3</ele>
        <time>2013-09-17T13:09:12Z</time>
      </trkpt>
      <trkpt lat="45.37284" lon="2.40747">
        <ele>629.4</ele>
        <time>2013-09-17T13:09:16Z</time>
      </trkpt>
      <trkpt lat="45.37293" lon="2.40746">
        <ele>629.5</ele>
        <time>2013-09-17T13:09:20Z</time>
      </trkpt>
      <trkpt lat="45.37301" lon="2.40746">
        <ele>629.5</ele>
        <time>2013-09-17T13:09:24Z</time>
      </trkpt>
      <trkpt lat="45.3731" lon="2.40749">
        <ele>629.6</ele>
        <time>2013-09-17T13:09:28Z</time>
      </trkpt>
      <trkpt lat="45.37319" lon="2.40751">
        <ele>629.7</ele>
        <time>2013-09-17T13:09:33Z</time>
      </trkpt>
      <trkpt lat="45.37328" lon="2.40753">
        <ele>629.7</ele>
        <time>2013-09-17T13:09:37Z</time>
      </trkpt>
      <trkpt lat="45.37337" lon="2.40755">
        <ele>629.7</ele>
        <time>2013-09-17T13:09:41Z</time>
      </trkpt>
      <trkpt lat="45.37347" lon="2.40756">
        <ele>629.7</ele>
        <time>2013-09-17T13:09:46Z</time>
      </trkpt>
      <trkpt lat="45.37357" lon="2.40757">
        <ele>629.6</ele>
        <time>2013-09-17T13:09:51Z</time>
      </trkpt>
      <trkpt lat="45.37367" lon="2.40758">
        <ele>629.5</ele>
        <time>2013-09-17T13:09:55Z</time>
      </trkpt>
      <trkpt lat="45.37377" lon="2.40756">
        <ele>629.5</ele>
        <time>2013-09-17T13:09:59Z</time>
      </trkpt>
      <trkpt lat="45.37386" lon="2.40757">
        <ele>629.4</ele>
        <time>2013-09-17T13:10:03Z</time>
      </trkpt>
      <trkpt lat="45.37394" lon="2.40757">
        <ele>629.3</ele>
        <time>2013-09-17T13:10:07Z</time>
      </trkpt>
      <trkpt lat="45.37403" lon="2.40759">
        <ele>629.2</ele>
        <time>2013-09-17T13:10:11Z</time>
      </trkpt>
      <trkpt lat="45.37411" lon="2.4076">
        <ele>629.1</ele>
        <time>2013-09-17T13:10:15Z</time>
      </trkpt>
      <trkpt lat="45.3742" lon="2.40761">
        <ele>629</ele>
        <time>2013-09-17T13:10:19Z</time>
      </trkpt>
      <trkpt lat="45.37429" lon="2.40763">
        <ele>628.5</ele>
        <time>2013-09-17T13:10:23Z</time>
      </trkpt>
      <trkpt lat="45.37438" lon="2.40764">
        <ele>627.9</ele>
        <time>2013-09-17T13:10:27Z</time>
      </trkpt>
      <trkpt lat="45.37448" lon="2.40765">
        <ele>627.4</ele>
        <time>2013-09-17T13:10:31Z</time>
      </trkpt>
      <trkpt lat="45.37456" lon="2.40768">
        <ele>626.8</ele>
        <time>2013-09-17T13:10:35Z</time>
      </trkpt>
      <trkpt lat="45.37463" lon="2.40773">
        <ele>626.3</ele>
        <time>2013-09-17T13:10:39Z</time>
      </trkpt>
      <trkpt lat="45.37473" lon="2.40773">
        <ele>625.7</ele>
        <time>2013-09-17T13:10:43Z</time>
      </trkpt>
      <trkpt lat="45.37482" lon="2.40774">
        <ele>625.2</ele>
        <time>2013-09-17T13:10:47Z</time>
      </trkpt>
      <trkpt lat="45.3749" lon="2.40775">
        <ele>624.6</ele>
        <time>2013-09-17T13:10:51Z</time>
      </trkpt>
      <trkpt lat="45.375" lon="2.40777">
        <ele>623.4</ele>
        <time>2013-09-17T13:10:55Z</time>
      </trkpt>
      <trkpt lat="45.3751" lon="2.4078">
        <ele>622.1</ele>
        <time>2013-09-17T13:10:59Z</time>
      </trkpt>
      <trkpt lat="45.37518" lon="2.40784">
        <ele>620.8</ele>
        <time>2013-09-17T13:11:03Z</time>
      </trkpt>
      <trkpt lat="45.37529" lon="2.40788">
        <ele>620.1</ele>
        <time>2013-09-17T13:11:08Z</time>
      </trkpt>
      <trkpt lat="45.37538" lon="2.40793">
        <ele>619.4</ele>
        <time>2013-09-17T13:11:12Z</time>
      </trkpt>
      <trkpt lat="45.37547" lon="2.40796">
        <ele>618.6</ele>
        <time>2013-09-17T13:11:16Z</time>
      </trkpt>
      <trkpt lat="45.37556" lon="2.408">
        <ele>617.9</ele>
        <time>2013-09-17T13:11:20Z</time>
      </trkpt>
      <trkpt lat="45.37565" lon="2.40805">
        <ele>617.2</ele>
        <time>2013-09-17T13:11:24Z</time>
      </trkpt>
      <trkpt lat="45.37575" lon="2.40811">
        <ele>616.5</ele>
        <time>2013-09-17T13:11:29Z</time>
      </trkpt>
      <trkpt lat="45.37583" lon="2.40815">
        <ele>615.7</ele>
        <time>2013-09-17T13:11:32Z</time>
      </trkpt>
      <trkpt lat="45.37591" lon="2.40821">
        <ele>614.7</ele>
        <time>2013-09-17T13:11:36Z</time>
      </trkpt>
      <trkpt lat="45.37598" lon="2.40828">
        <ele>614.5</ele>
        <time>2013-09-17T13:11:40Z</time>
      </trkpt>
      <trkpt lat="45.37607" lon="2.40833">
        <ele>614.2</ele>
        <time>2013-09-17T13:11:44Z</time>
      </trkpt>
      <trkpt lat="45.37615" lon="2.40839">
        <ele>613.9</ele>
        <time>2013-09-17T13:11:48Z</time>
      </trkpt>
      <trkpt lat="45.37624" lon="2.40843">
        <ele>613.6</ele>
        <time>2013-09-17T13:11:52Z</time>
      </trkpt>
      <trkpt lat="45.37632" lon="2.40848">
        <ele>613.4</ele>
        <time>2013-09-17T13:11:56Z</time>
      </trkpt>
      <trkpt lat="45.3764" lon="2.40855">
        <ele>612.7</ele>
        <time>2013-09-17T13:12:00Z</time>
      </trkpt>
      <trkpt lat="45.37648" lon="2.4086">
        <ele>612.1</ele>
        <time>2013-09-17T13:12:04Z</time>
      </trkpt>
      <trkpt lat="45.37657" lon="2.40866">
        <ele>611.5</ele>
        <time>2013-09-17T13:12:08Z</time>
      </trkpt>
      <trkpt lat="45.37668" lon="2.40873">
        <ele>610.8</ele>
        <time>2013-09-17T13:12:13Z</time>
      </trkpt>
      <trkpt lat="45.37676" lon="2.4088">
        <ele>610.4</ele>
        <time>2013-09-17T13:12:17Z</time>
      </trkpt>
      <trkpt lat="45.37684" lon="2.40889">
        <ele>610.2</ele>
        <time>2013-09-17T13:12:22Z</time>
      </trkpt>
      <trkpt lat="45.37691" lon="2.40896">
        <ele>610</ele>
        <time>2013-09-17T13:12:26Z</time>
      </trkpt>
      <trkpt lat="45.37698" lon="2.40904">
        <ele>609.8</ele>
        <time>2013-09-17T13:12:31Z</time>
      </trkpt>
      <trkpt lat="45.37705" lon="2.40911">
        <ele>609.6</ele>
        <time>2013-09-17T13:12:35Z</time>
      </trkpt>
      <trkpt lat="45.37711" lon="2.40919">
        <ele>609.5</ele>
        <time>2013-09-17T13:12:39Z</time>
      </trkpt>
      <trkpt lat="45.37718" lon="2.40925">
        <ele>609.3</ele>
        <time>2013-09-17T13:12:42Z</time>
      </trkpt>
      <trkpt lat="45.37726" lon="2.40932">
        <ele>609.2</ele>
        <time>2013-09-17T13:12:46Z</time>
      </trkpt>
      <trkpt lat="45.37733" lon="2.4094">
        <ele>609.1</ele>
        <time>2013-09-17T13:12:50Z</time>
      </trkpt>
      <trkpt lat="45.37742" lon="2.40946">
        <ele>609</ele>
        <time>2013-09-17T13:12:54Z</time>
      </trkpt>
      <trkpt lat="45.37749" lon="2.40952">
        <ele>608.9</ele>
        <time>2013-09-17T13:12:58Z</time>
      </trkpt>
      <trkpt lat="45.37756" lon="2.40963">
        <ele>608.6</ele>
        <time>2013-09-17T13:13:03Z</time>
      </trkpt>
      <trkpt lat="45.37762" lon="2.40971">
        <ele>608.5</ele>
        <time>2013-09-17T13:13:07Z</time>
      </trkpt>
      <trkpt lat="45.37769" lon="2.40978">
        <ele>608.3</ele>
        <time>2013-09-17T13:13:11Z</time>
      </trkpt>
      <trkpt lat="45.37775" lon="2.40987">
        <ele>608.1</ele>
        <time>2013-09-17T13:13:15Z</time>
      </trkpt>
      <trkpt lat="45.37783" lon="2.40994">
        <ele>607.9</ele>
        <time>2013-09-17T13:13:20Z</time>
      </trkpt>
      <trkpt lat="45.3779" lon="2.41005">
        <ele>607.7</ele>
        <time>2013-09-17T13:13:24Z</time>
      </trkpt>
      <trkpt lat="45.37797" lon="2.41013">
        <ele>607.2</ele>
        <time>2013-09-17T13:13:28Z</time>
      </trkpt>
      <trkpt lat="45.37803" lon="2.41022">
        <ele>606.9</ele>
        <time>2013-09-17T13:13:32Z</time>
      </trkpt>
      <trkpt lat="45.37811" lon="2.41029">
        <ele>606.6</ele>
        <time>2013-09-17T13:13:36Z</time>
      </trkpt>
      <trkpt lat="45.37819" lon="2.41038">
        <ele>606.4</ele>
        <time>2013-09-17T13:13:41Z</time>
      </trkpt>
      <trkpt lat="45.37827" lon="2.41044">
        <ele>606.1</ele>
        <time>2013-09-17T13:13:45Z</time>
      </trkpt>
      <trkpt lat="45.37836" lon="2.41049">
        <ele>605.4</ele>
        <time>2013-09-17T13:13:49Z</time>
      </trkpt>
      <trkpt lat="45.37845" lon="2.41054">
        <ele>604.5</ele>
        <time>2013-09-17T13:13:53Z</time>
      </trkpt>
      <trkpt lat="45.37853" lon="2.41059">
        <ele>603.7</ele>
        <time>2013-09-17T13:13:58Z</time>
      </trkpt>
      <trkpt lat="45.37863" lon="2.41066">
        <ele>602.9</ele>
        <time>2013-09-17T13:14:02Z</time>
      </trkpt>
      <trkpt lat="45.37869" lon="2.41075">
        <ele>602.1</ele>
        <time>2013-09-17T13:14:06Z</time>
      </trkpt>
      <trkpt lat="45.37877" lon="2.41084">
        <ele>601.3</ele>
        <time>2013-09-17T13:14:10Z</time>
      </trkpt>
      <trkpt lat="45.37885" lon="2.4109">
        <ele>601.1</ele>
        <time>2013-09-17T13:14:13Z</time>
      </trkpt>
      <trkpt lat="45.3789" lon="2.41098">
        <ele>600.9</ele>
        <time>2013-09-17T13:14:16Z</time>
      </trkpt>
      <trkpt lat="45.37897" lon="2.41107">
        <ele>600.7</ele>
        <time>2013-09-17T13:14:20Z</time>
      </trkpt>
      <trkpt lat="45.37903" lon="2.41116">
        <ele>600.5</ele>
        <time>2013-09-17T13:14:24Z</time>
      </trkpt>
      <trkpt lat="45.37909" lon="2.41126">
        <ele>600.4</ele>
        <time>2013-09-17T13:14:28Z</time>
      </trkpt>
      <trkpt lat="45.37915" lon="2.41137">
        <ele>600.6</ele>
        <time>2013-09-17T13:14:32Z</time>
      </trkpt>
      <trkpt lat="45.37921" lon="2.41149">
        <ele>600.9</ele>
        <time>2013-09-17T13:14:37Z</time>
      </trkpt>
      <trkpt lat="45.37926" lon="2.4116">
        <ele>601.2</ele>
        <time>2013-09-17T13:14:41Z</time>
      </trkpt>
      <trkpt lat="45.37931" lon="2.4117">
        <ele>600.6</ele>
        <time>2013-09-17T13:14:45Z</time>
      </trkpt>
      <trkpt lat="45.37937" lon="2.41181">
        <ele>600.3</ele>
        <time>2013-09-17T13:14:50Z</time>
      </trkpt>
      <trkpt lat="45.37944" lon="2.41189">
        <ele>599.9</ele>
        <time>2013-09-17T13:14:54Z</time>
      </trkpt>
      <trkpt lat="45.37951" lon="2.41197">
        <ele>599.3</ele>
        <time>2013-09-17T13:14:58Z</time>
      </trkpt>
      <trkpt lat="45.37958" lon="2.41204">
        <ele>598.6</ele>
        <time>2013-09-17T13:15:01Z</time>
      </trkpt>
      <trkpt lat="45.37965" lon="2.41211">
        <ele>598</ele>
        <time>2013-09-17T13:15:06Z</time>
      </trkpt>
      <trkpt lat="45.37972" lon="2.41217">
        <ele>597.4</ele>
        <time>2013-09-17T13:15:10Z</time>
      </trkpt>
      <trkpt lat="45.3798" lon="2.41226">
        <ele>596.7</ele>
        <time>2013-09-17T13:15:14Z</time>
      </trkpt>
      <trkpt lat="45.37988" lon="2.41232">
        <ele>596.1</ele>
        <time>2013-09-17T13:15:17Z</time>
      </trkpt>
      <trkpt lat="45.37996" lon="2.41241">
        <ele>595.5</ele>
        <time>2013-09-17T13:15:21Z</time>
      </trkpt>
      <trkpt lat="45.38003" lon="2.41247">
        <ele>594.8</ele>
        <time>2013-09-17T13:15:24Z</time>
      </trkpt>
      <trkpt lat="45.38011" lon="2.41256">
        <ele>594.3</ele>
        <time>2013-09-17T13:15:28Z</time>
      </trkpt>
      <trkpt lat="45.38019" lon="2.41265">
        <ele>593.5</ele>
        <time>2013-09-17T13:15:32Z</time>
      </trkpt>
      <trkpt lat="45.38026" lon="2.41273">
        <ele>592.8</ele>
        <time>2013-09-17T13:15:36Z</time>
      </trkpt>
      <trkpt lat="45.38034" lon="2.4128">
        <ele>592.1</ele>
        <time>2013-09-17T13:15:40Z</time>
      </trkpt>
      <trkpt lat="45.38041" lon="2.41288">
        <ele>591.4</ele>
        <time>2013-09-17T13:15:44Z</time>
      </trkpt>
      <trkpt lat="45.38049" lon="2.41297">
        <ele>590.6</ele>
        <time>2013-09-17T13:15:48Z</time>
      </trkpt>
      <trkpt lat="45.38057" lon="2.41305">
        <ele>589.9</ele>
        <time>2013-09-17T13:15:52Z</time>
      </trkpt>
      <trkpt lat="45.38064" lon="2.4131">
        <ele>589.2</ele>
        <time>2013-09-17T13:15:55Z</time>
      </trkpt>
      <trkpt lat="45.38071" lon="2.41319">
        <ele>588.5</ele>
        <time>2013-09-17T13:15:59Z</time>
      </trkpt>
      <trkpt lat="45.38077" lon="2.41327">
        <ele>587.7</ele>
        <time>2013-09-17T13:16:03Z</time>
      </trkpt>
      <trkpt lat="45.38085" lon="2.41336">
        <ele>587</ele>
        <time>2013-09-17T13:16:08Z</time>
      </trkpt>
      <trkpt lat="45.38092" lon="2.41343">
        <ele>586.5</ele>
        <time>2013-09-17T13:16:11Z</time>
      </trkpt>
      <trkpt lat="45.38099" lon="2.4135">
        <ele>585.9</ele>
        <time>2013-09-17T13:16:14Z</time>
      </trkpt>
      <trkpt lat="45.38106" lon="2.41356">
        <ele>585.5</ele>
        <time>2013-09-17T13:16:17Z</time>
      </trkpt>
      <trkpt lat="45.38114" lon="2.41362">
        <ele>585</ele>
        <time>2013-09-17T13:16:22Z</time>
      </trkpt>
      <trkpt lat="45.38123" lon="2.41366">
        <ele>584.5</ele>
        <time>2013-09-17T13:16:26Z</time>
      </trkpt>
      <trkpt lat="45.38132" lon="2.4137">
        <ele>584.1</ele>
        <time>2013-09-17T13:16:30Z</time>
      </trkpt>
      <trkpt lat="45.3814" lon="2.41376">
        <ele>583.6</ele>
        <time>2013-09-17T13:16:34Z</time>
      </trkpt>
      <trkpt lat="45.3815" lon="2.41381">
        <ele>583.2</ele>
        <time>2013-09-17T13:16:38Z</time>
      </trkpt>
      <trkpt lat="45.3816" lon="2.41382">
        <ele>582.7</ele>
        <time>2013-09-17T13:16:42Z</time>
      </trkpt>
      <trkpt lat="45.38171" lon="2.41384">
        <ele>582</ele>
        <time>2013-09-17T13:16:46Z</time>
      </trkpt>
      <trkpt lat="45.3818" lon="2.41387">
        <ele>581.3</ele>
        <time>2013-09-17T13:16:50Z</time>
      </trkpt>
      <trkpt lat="45.38189" lon="2.41389">
        <ele>581.1</ele>
        <time>2013-09-17T13:16:54Z</time>
      </trkpt>
      <trkpt lat="45.38198" lon="2.41392">
        <ele>580.9</ele>
        <time>2013-09-17T13:16:58Z</time>
      </trkpt>
      <trkpt lat="45.38205" lon="2.41398">
        <ele>580.6</ele>
        <time>2013-09-17T13:17:02Z</time>
      </trkpt>
      <trkpt lat="45.38213" lon="2.41403">
        <ele>580.4</ele>
        <time>2013-09-17T13:17:07Z</time>
      </trkpt>
      <trkpt lat="45.38222" lon="2.41407">
        <ele>580.1</ele>
        <time>2013-09-17T13:17:10Z</time>
      </trkpt>
      <trkpt lat="45.38231" lon="2.41411">
        <ele>579.8</ele>
        <time>2013-09-17T13:17:14Z</time>
      </trkpt>
      <trkpt lat="45.3824" lon="2.41413">
        <ele>579.5</ele>
        <time>2013-09-17T13:17:18Z</time>
      </trkpt>
      <trkpt lat="45.38249" lon="2.41411">
        <ele>579.4</ele>
        <time>2013-09-17T13:17:22Z</time>
      </trkpt>
      <trkpt lat="45.38257" lon="2.41405">
        <ele>578.5</ele>
        <time>2013-09-17T13:17:25Z</time>
      </trkpt>
      <trkpt lat="45.38264" lon="2.41397">
        <ele>577.8</ele>
        <time>2013-09-17T13:17:29Z</time>
      </trkpt>
      <trkpt lat="45.38272" lon="2.41389">
        <ele>577.2</ele>
        <time>2013-09-17T13:17:33Z</time>
      </trkpt>
      <trkpt lat="45.38279" lon="2.41383">
        <ele>576.5</ele>
        <time>2013-09-17T13:17:37Z</time>
      </trkpt>
      <trkpt lat="45.38287" lon="2.41375">
        <ele>575.9</ele>
        <time>2013-09-17T13:17:41Z</time>
      </trkpt>
      <trkpt lat="45.38297" lon="2.41369">
        <ele>575.3</ele>
        <time>2013-09-17T13:17:45Z</time>
      </trkpt>
      <trkpt lat="45.38306" lon="2.41366">
        <ele>574.6</ele>
        <time>2013-09-17T13:17:49Z</time>
      </trkpt>
      <trkpt lat="45.38315" lon="2.41364">
        <ele>574</ele>
        <time>2013-09-17T13:17:53Z</time>
      </trkpt>
      <trkpt lat="45.38324" lon="2.41362">
        <ele>573.4</ele>
        <time>2013-09-17T13:17:57Z</time>
      </trkpt>
      <trkpt lat="45.38333" lon="2.41361">
        <ele>572.7</ele>
        <time>2013-09-17T13:18:01Z</time>
      </trkpt>
      <trkpt lat="45.38343" lon="2.41359">
        <ele>571.3</ele>
        <time>2013-09-17T13:18:04Z</time>
      </trkpt>
      <trkpt lat="45.38352" lon="2.4136">
        <ele>570.8</ele>
        <time>2013-09-17T13:18:08Z</time>
      </trkpt>
      <trkpt lat="45.38359" lon="2.41366">
        <ele>570.4</ele>
        <time>2013-09-17T13:18:13Z</time>
      </trkpt>
      <trkpt lat="45.38367" lon="2.41368">
        <ele>569.9</ele>
        <time>2013-09-17T13:18:17Z</time>
      </trkpt>
      <trkpt lat="45.38375" lon="2.4137">
        <ele>569.5</ele>
        <time>2013-09-17T13:18:21Z</time>
      </trkpt>
      <trkpt lat="45.38384" lon="2.41372">
        <ele>569</ele>
        <time>2013-09-17T13:18:26Z</time>
      </trkpt>
      <trkpt lat="45.38392" lon="2.41377">
        <ele>568.5</ele>
        <time>2013-09-17T13:18:30Z</time>
      </trkpt>
      <trkpt lat="45.384" lon="2.41383">
        <ele>568.1</ele>
        <time>2013-09-17T13:18:37Z</time>
      </trkpt>
      <trkpt lat="45.3841" lon="2.41388">
        <ele>567.6</ele>
        <time>2013-09-17T13:18:42Z</time>
      </trkpt>
      <trkpt lat="45.38419" lon="2.41391">
        <ele>567.2</ele>
        <time>2013-09-17T13:18:45Z</time>
      </trkpt>
      <trkpt lat="45.38427" lon="2.41397">
        <ele>566.5</ele>
        <time>2013-09-17T13:18:48Z</time>
      </trkpt>
      <trkpt lat="45.38436" lon="2.41404">
        <ele>566.5</ele>
        <time>2013-09-17T13:18:52Z</time>
      </trkpt>
      <trkpt lat="45.38445" lon="2.41405">
        <ele>566.2</ele>
        <time>2013-09-17T13:18:56Z</time>
      </trkpt>
      <trkpt lat="45.38454" lon="2.41406">
        <ele>565.9</ele>
        <time>2013-09-17T13:19:01Z</time>
      </trkpt>
      <trkpt lat="45.38463" lon="2.4141">
        <ele>565.6</ele>
        <time>2013-09-17T13:19:06Z</time>
      </trkpt>
      <trkpt lat="45.38473" lon="2.41414">
        <ele>565.4</ele>
        <time>2013-09-17T13:19:09Z</time>
      </trkpt>
      <trkpt lat="45.38484" lon="2.41419">
        <ele>565.1</ele>
        <time>2013-09-17T13:19:12Z</time>
      </trkpt>
      <trkpt lat="45.38492" lon="2.41423">
        <ele>564.8</ele>
        <time>2013-09-17T13:19:16Z</time>
      </trkpt>
      <trkpt lat="45.385" lon="2.41426">
        <ele>564.5</ele>
        <time>2013-09-17T13:19:20Z</time>
      </trkpt>
      <trkpt lat="45.38507" lon="2.41434">
        <ele>564.5</ele>
        <time>2013-09-17T13:19:27Z</time>
      </trkpt>
      <trkpt lat="45.38518" lon="2.41443">
        <ele>564.4</ele>
        <time>2013-09-17T13:19:33Z</time>
      </trkpt>
      <trkpt lat="45.38527" lon="2.4145">
        <ele>564.5</ele>
        <time>2013-09-17T13:19:36Z</time>
      </trkpt>
      <trkpt lat="45.38536" lon="2.41456">
        <ele>564.7</ele>
        <time>2013-09-17T13:19:39Z</time>
      </trkpt>
      <trkpt lat="45.38545" lon="2.4146">
        <ele>564.9</ele>
        <time>2013-09-17T13:19:42Z</time>
      </trkpt>
      <trkpt lat="45.38554" lon="2.41466">
        <ele>565.1</ele>
        <time>2013-09-17T13:19:46Z</time>
      </trkpt>
      <trkpt lat="45.38563" lon="2.41471">
        <ele>565.3</ele>
        <time>2013-09-17T13:19:50Z</time>
      </trkpt>
      <trkpt lat="45.38571" lon="2.41476">
        <ele>565.5</ele>
        <time>2013-09-17T13:19:54Z</time>
      </trkpt>
      <trkpt lat="45.38579" lon="2.4148">
        <ele>565.6</ele>
        <time>2013-09-17T13:19:58Z</time>
      </trkpt>
      <trkpt lat="45.3859" lon="2.4148">
        <ele>565.7</ele>
        <time>2013-09-17T13:20:04Z</time>
      </trkpt>
      <trkpt lat="45.386" lon="2.41479">
        <ele>565.8</ele>
        <time>2013-09-17T13:20:08Z</time>
      </trkpt>
      <trkpt lat="45.38608" lon="2.41479">
        <ele>565.7</ele>
        <time>2013-09-17T13:20:11Z</time>
      </trkpt>
      <trkpt lat="45.38619" lon="2.41477">
        <ele>565.6</ele>
        <time>2013-09-17T13:20:15Z</time>
      </trkpt>
      <trkpt lat="45.38628" lon="2.41476">
        <ele>565.5</ele>
        <time>2013-09-17T13:20:19Z</time>
      </trkpt>
      <trkpt lat="45.38637" lon="2.41479">
        <ele>565.5</ele>
        <time>2013-09-17T13:20:24Z</time>
      </trkpt>
      <trkpt lat="45.38646" lon="2.4148">
        <ele>565.4</ele>
        <time>2013-09-17T13:20:28Z</time>
      </trkpt>
      <trkpt lat="45.38656" lon="2.4148">
        <ele>565.3</ele>
        <time>2013-09-17T13:20:33Z</time>
      </trkpt>
      <trkpt lat="45.38666" lon="2.4148">
        <ele>565.2</ele>
        <time>2013-09-17T13:20:38Z</time>
      </trkpt>
      <trkpt lat="45.38674" lon="2.41476">
        <ele>563.7</ele>
        <time>2013-09-17T13:20:42Z</time>
      </trkpt>
      <trkpt lat="45.38681" lon="2.4147">
        <ele>562.3</ele>
        <time>2013-09-17T13:20:45Z</time>
      </trkpt>
      <trkpt lat="45.38691" lon="2.41466">
        <ele>560.9</ele>
        <time>2013-09-17T13:20:52Z</time>
      </trkpt>
      <trkpt lat="45.38699" lon="2.41464">
        <ele>559.5</ele>
        <time>2013-09-17T13:20:56Z</time>
      </trkpt>
      <trkpt lat="45.38707" lon="2.41461">
        <ele>558.2</ele>
        <time>2013-09-17T13:21:00Z</time>
      </trkpt>
      <trkpt lat="45.38716" lon="2.41457">
        <ele>556.8</ele>
        <time>2013-09-17T13:21:04Z</time>
      </trkpt>
      <trkpt lat="45.38724" lon="2.41455">
        <ele>556</ele>
        <time>2013-09-17T13:21:09Z</time>
      </trkpt>
      <trkpt lat="45.38733" lon="2.41451">
        <ele>555.2</ele>
        <time>2013-09-17T13:21:13Z</time>
      </trkpt>
      <trkpt lat="45.38742" lon="2.41449">
        <ele>554.4</ele>
        <time>2013-09-17T13:21:17Z</time>
      </trkpt>
      <trkpt lat="45.38751" lon="2.41451">
        <ele>553.5</ele>
        <time>2013-09-17T13:21:20Z</time>
      </trkpt>
      <trkpt lat="45.38759" lon="2.41456">
        <ele>552.1</ele>
        <time>2013-09-17T13:21:23Z</time>
      </trkpt>
      <trkpt lat="45.38767" lon="2.41462">
        <ele>552</ele>
        <time>2013-09-17T13:21:27Z</time>
      </trkpt>
      <trkpt lat="45.38775" lon="2.41467">
        <ele>551.9</ele>
        <time>2013-09-17T13:21:31Z</time>
      </trkpt>
      <trkpt lat="45.38784" lon="2.41475">
        <ele>551.8</ele>
        <time>2013-09-17T13:21:37Z</time>
      </trkpt>
      <trkpt lat="45.38793" lon="2.41476">
        <ele>551.7</ele>
        <time>2013-09-17T13:21:40Z</time>
      </trkpt>
      <trkpt lat="45.38802" lon="2.41477">
        <ele>551.6</ele>
        <time>2013-09-17T13:21:43Z</time>
      </trkpt>
      <trkpt lat="45.38812" lon="2.41479">
        <ele>551.5</ele>
        <time>2013-09-17T13:21:47Z</time>
      </trkpt>
      <trkpt lat="45.3882" lon="2.41484">
        <ele>550.9</ele>
        <time>2013-09-17T13:21:51Z</time>
      </trkpt>
      <trkpt lat="45.38828" lon="2.41489">
        <ele>550.3</ele>
        <time>2013-09-17T13:21:56Z</time>
      </trkpt>
      <trkpt lat="45.38838" lon="2.4149">
        <ele>549.6</ele>
        <time>2013-09-17T13:22:00Z</time>
      </trkpt>
      <trkpt lat="45.38846" lon="2.41493">
        <ele>549</ele>
        <time>2013-09-17T13:22:04Z</time>
      </trkpt>
      <trkpt lat="45.38855" lon="2.41498">
        <ele>549.2</ele>
        <time>2013-09-17T13:22:09Z</time>
      </trkpt>
      <trkpt lat="45.38858" lon="2.41509">
        <ele>549.4</ele>
        <time>2013-09-17T13:22:15Z</time>
      </trkpt>
      <trkpt lat="45.38854" lon="2.41521">
        <ele>549.5</ele>
        <time>2013-09-17T13:22:22Z</time>
      </trkpt>
      <trkpt lat="45.38851" lon="2.41535">
        <ele>549.7</ele>
        <time>2013-09-17T13:22:27Z</time>
      </trkpt>
      <trkpt lat="45.38848" lon="2.41546">
        <ele>549.9</ele>
        <time>2013-09-17T13:22:32Z</time>
      </trkpt>
      <trkpt lat="45.38845" lon="2.41558">
        <ele>550.1</ele>
        <time>2013-09-17T13:22:36Z</time>
      </trkpt>
      <trkpt lat="45.38842" lon="2.41569">
        <ele>550.3</ele>
        <time>2013-09-17T13:22:40Z</time>
      </trkpt>
      <trkpt lat="45.38841" lon="2.41581">
        <ele>550.5</ele>
        <time>2013-09-17T13:22:46Z</time>
      </trkpt>
      <trkpt lat="45.38836" lon="2.41592">
        <ele>551.2</ele>
        <time>2013-09-17T13:22:50Z</time>
      </trkpt>
      <trkpt lat="45.3883" lon="2.41599">
        <ele>551.9</ele>
        <time>2013-09-17T13:22:54Z</time>
      </trkpt>
      <trkpt lat="45.38824" lon="2.41609">
        <ele>552.6</ele>
        <time>2013-09-17T13:23:00Z</time>
      </trkpt>
      <trkpt lat="45.38822" lon="2.4162">
        <ele>553.2</ele>
        <time>2013-09-17T13:23:03Z</time>
      </trkpt>
      <trkpt lat="45.38824" lon="2.41633">
        <ele>553.7</ele>
        <time>2013-09-17T13:23:07Z</time>
      </trkpt>
      <trkpt lat="45.38826" lon="2.41647">
        <ele>554.3</ele>
        <time>2013-09-17T13:23:13Z</time>
      </trkpt>
      <trkpt lat="45.38829" lon="2.4166">
        <ele>556.1</ele>
        <time>2013-09-17T13:23:19Z</time>
      </trkpt>
      <trkpt lat="45.38831" lon="2.41672">
        <ele>557.9</ele>
        <time>2013-09-17T13:23:25Z</time>
      </trkpt>
      <trkpt lat="45.38834" lon="2.41685">
        <ele>559.7</ele>
        <time>2013-09-17T13:23:31Z</time>
      </trkpt>
      <trkpt lat="45.38838" lon="2.41697">
        <ele>561.5</ele>
        <time>2013-09-17T13:23:37Z</time>
      </trkpt>
      <trkpt lat="45.38842" lon="2.41709">
        <ele>563.4</ele>
        <time>2013-09-17T13:23:43Z</time>
      </trkpt>
      <trkpt lat="45.38844" lon="2.41721">
        <ele>564.6</ele>
        <time>2013-09-17T13:23:51Z</time>
      </trkpt>
      <trkpt lat="45.38841" lon="2.41732">
        <ele>565.9</ele>
        <time>2013-09-17T13:23:58Z</time>
      </trkpt>
      <trkpt lat="45.38835" lon="2.41745">
        <ele>568.3</ele>
        <time>2013-09-17T13:24:05Z</time>
      </trkpt>
      <trkpt lat="45.38831" lon="2.41757">
        <ele>570.6</ele>
        <time>2013-09-17T13:24:11Z</time>
      </trkpt>
      <trkpt lat="45.38829" lon="2.41769">
        <ele>573</ele>
        <time>2013-09-17T13:24:18Z</time>
      </trkpt>
      <trkpt lat="45.38833" lon="2.41781">
        <ele>575.4</ele>
        <time>2013-09-17T13:24:24Z</time>
      </trkpt>
      <trkpt lat="45.38834" lon="2.41794">
        <ele>576.5</ele>
        <time>2013-09-17T13:24:31Z</time>
      </trkpt>
      <trkpt lat="45.38838" lon="2.41805">
        <ele>577.5</ele>
        <time>2013-09-17T13:24:37Z</time>
      </trkpt>
      <trkpt lat="45.38841" lon="2.41817">
        <ele>578.6</ele>
        <time>2013-09-17T13:24:44Z</time>
      </trkpt>
      <trkpt lat="45.3884" lon="2.4183">
        <ele>579.8</ele>
        <time>2013-09-17T13:24:52Z</time>
      </trkpt>
      <trkpt lat="45.38841" lon="2.41842">
        <ele>581</ele>
        <time>2013-09-17T13:25:01Z</time>
      </trkpt>
      <trkpt lat="45.38843" lon="2.41853">
        <ele>582.2</ele>
        <time>2013-09-17T13:25:08Z</time>
      </trkpt>
      <trkpt lat="45.38844" lon="2.41866">
        <ele>583.4</ele>
        <time>2013-09-17T13:25:16Z</time>
      </trkpt>
      <trkpt lat="45.38844" lon="2.41878">
        <ele>583.5</ele>
        <time>2013-09-17T13:25:24Z</time>
      </trkpt>
      <trkpt lat="45.38845" lon="2.41891">
        <ele>583.5</ele>
        <time>2013-09-17T13:25:34Z</time>
      </trkpt>
      <trkpt lat="45.38845" lon="2.41904">
        <ele>583.6</ele>
        <time>2013-09-17T13:25:41Z</time>
      </trkpt>
      <trkpt lat="45.38849" lon="2.41914">
        <ele>583</ele>
        <time>2013-09-17T13:25:47Z</time>
      </trkpt>
      <trkpt lat="45.38854" lon="2.41923">
        <ele>582.4</ele>
        <time>2013-09-17T13:25:53Z</time>
      </trkpt>
      <trkpt lat="45.38859" lon="2.41933">
        <ele>581.7</ele>
        <time>2013-09-17T13:25:59Z</time>
      </trkpt>
      <trkpt lat="45.38863" lon="2.41943">
        <ele>583.5</ele>
        <time>2013-09-17T13:26:09Z</time>
      </trkpt>
      <trkpt lat="45.38864" lon="2.41958">
        <ele>585.1</ele>
        <time>2013-09-17T13:26:20Z</time>
      </trkpt>
      <trkpt lat="45.38868" lon="2.41969">
        <ele>586.7</ele>
        <time>2013-09-17T13:26:26Z</time>
      </trkpt>
      <trkpt lat="45.38869" lon="2.41981">
        <ele>588.4</ele>
        <time>2013-09-17T13:26:36Z</time>
      </trkpt>
      <trkpt lat="45.38874" lon="2.4199">
        <ele>590</ele>
        <time>2013-09-17T13:26:40Z</time>
      </trkpt>
      <trkpt lat="45.38878" lon="2.42002">
        <ele>590.9</ele>
        <time>2013-09-17T13:26:45Z</time>
      </trkpt>
      <trkpt lat="45.38881" lon="2.42015">
        <ele>591.8</ele>
        <time>2013-09-17T13:26:50Z</time>
      </trkpt>
      <trkpt lat="45.3889" lon="2.42019">
        <ele>592.7</ele>
        <time>2013-09-17T13:26:53Z</time>
      </trkpt>
      <trkpt lat="45.38895" lon="2.4203">
        <ele>594.4</ele>
        <time>2013-09-17T13:27:00Z</time>
      </trkpt>
      <trkpt lat="45.38893" lon="2.42046">
        <ele>596</ele>
        <time>2013-09-17T13:27:07Z</time>
      </trkpt>
      <trkpt lat="45.38893" lon="2.4206">
        <ele>597.6</ele>
        <time>2013-09-17T13:27:10Z</time>
      </trkpt>
      <trkpt lat="45.38894" lon="2.42074">
        <ele>596.5</ele>
        <time>2013-09-17T13:27:12Z</time>
      </trkpt>
      <trkpt lat="45.38897" lon="2.42086">
        <ele>595.3</ele>
        <time>2013-09-17T13:27:16Z</time>
      </trkpt>
      <trkpt lat="45.38898" lon="2.42098">
        <ele>594.1</ele>
        <time>2013-09-17T13:27:21Z</time>
      </trkpt>
      <trkpt lat="45.38898" lon="2.42111">
        <ele>592.9</ele>
        <time>2013-09-17T13:27:27Z</time>
      </trkpt>
      <trkpt lat="45.38895" lon="2.42122">
        <ele>591.7</ele>
        <time>2013-09-17T13:27:31Z</time>
      </trkpt>
      <trkpt lat="45.38892" lon="2.42134">
        <ele>591.3</ele>
        <time>2013-09-17T13:27:34Z</time>
      </trkpt>
      <trkpt lat="45.38887" lon="2.42148">
        <ele>590.8</ele>
        <time>2013-09-17T13:27:39Z</time>
      </trkpt>
      <trkpt lat="45.38888" lon="2.42162">
        <ele>590.4</ele>
        <time>2013-09-17T13:27:44Z</time>
      </trkpt>
      <trkpt lat="45.38887" lon="2.42175">
        <ele>589.9</ele>
        <time>2013-09-17T13:27:48Z</time>
      </trkpt>
      <trkpt lat="45.38886" lon="2.42186">
        <ele>589.5</ele>
        <time>2013-09-17T13:27:51Z</time>
      </trkpt>
      <trkpt lat="45.38888" lon="2.422">
        <ele>587.6</ele>
        <time>2013-09-17T13:27:56Z</time>
      </trkpt>
      <trkpt lat="45.38887" lon="2.42212">
        <ele>586.3</ele>
        <time>2013-09-17T13:28:01Z</time>
      </trkpt>
      <trkpt lat="45.38885" lon="2.42224">
        <ele>584.8</ele>
        <time>2013-09-17T13:28:08Z</time>
      </trkpt>
      <trkpt lat="45.3888" lon="2.42245">
        <ele>583.4</ele>
        <time>2013-09-17T13:28:12Z</time>
      </trkpt>
      <trkpt lat="45.38876" lon="2.42258">
        <ele>581.9</ele>
        <time>2013-09-17T13:28:16Z</time>
      </trkpt>
      <trkpt lat="45.38874" lon="2.4227">
        <ele>580.5</ele>
        <time>2013-09-17T13:28:19Z</time>
      </trkpt>
      <trkpt lat="45.38872" lon="2.42284">
        <ele>579</ele>
        <time>2013-09-17T13:28:23Z</time>
      </trkpt>
      <trkpt lat="45.38872" lon="2.42296">
        <ele>577.5</ele>
        <time>2013-09-17T13:28:26Z</time>
      </trkpt>
      <trkpt lat="45.3887" lon="2.42307">
        <ele>576.1</ele>
        <time>2013-09-17T13:28:29Z</time>
      </trkpt>
      <trkpt lat="45.38867" lon="2.42319">
        <ele>575.2</ele>
        <time>2013-09-17T13:28:32Z</time>
      </trkpt>
      <trkpt lat="45.38867" lon="2.42332">
        <ele>574.3</ele>
        <time>2013-09-17T13:28:36Z</time>
      </trkpt>
      <trkpt lat="45.38866" lon="2.42344">
        <ele>574.7</ele>
        <time>2013-09-17T13:28:40Z</time>
      </trkpt>
      <trkpt lat="45.38863" lon="2.42356">
        <ele>575.2</ele>
        <time>2013-09-17T13:28:44Z</time>
      </trkpt>
      <trkpt lat="45.38861" lon="2.42368">
        <ele>575.7</ele>
        <time>2013-09-17T13:28:48Z</time>
      </trkpt>
      <trkpt lat="45.38854" lon="2.42379">
        <ele>576.3</ele>
        <time>2013-09-17T13:28:53Z</time>
      </trkpt>
      <trkpt lat="45.38844" lon="2.42392">
        <ele>576.8</ele>
        <time>2013-09-17T13:29:00Z</time>
      </trkpt>
      <trkpt lat="45.38834" lon="2.42406">
        <ele>576.9</ele>
        <time>2013-09-17T13:29:06Z</time>
      </trkpt>
      <trkpt lat="45.38825" lon="2.42412">
        <ele>577</ele>
        <time>2013-09-17T13:29:11Z</time>
      </trkpt>
      <trkpt lat="45.38815" lon="2.42418">
        <ele>577.1</ele>
        <time>2013-09-17T13:29:16Z</time>
      </trkpt>
      <trkpt lat="45.38807" lon="2.42422">
        <ele>577.2</ele>
        <time>2013-09-17T13:29:20Z</time>
      </trkpt>
      <trkpt lat="45.38798" lon="2.42425">
        <ele>576.7</ele>
        <time>2013-09-17T13:29:24Z</time>
      </trkpt>
      <trkpt lat="45.3879" lon="2.4243">
        <ele>576.3</ele>
        <time>2013-09-17T13:29:28Z</time>
      </trkpt>
      <trkpt lat="45.38779" lon="2.42433">
        <ele>575.8</ele>
        <time>2013-09-17T13:29:33Z</time>
      </trkpt>
      <trkpt lat="45.38771" lon="2.42435">
        <ele>576.7</ele>
        <time>2013-09-17T13:29:37Z</time>
      </trkpt>
      <trkpt lat="45.38764" lon="2.42441">
        <ele>577.6</ele>
        <time>2013-09-17T13:29:41Z</time>
      </trkpt>
      <trkpt lat="45.38755" lon="2.42445">
        <ele>578.5</ele>
        <time>2013-09-17T13:29:45Z</time>
      </trkpt>
      <trkpt lat="45.38747" lon="2.42451">
        <ele>579.5</ele>
        <time>2013-09-17T13:29:50Z</time>
      </trkpt>
      <trkpt lat="45.38739" lon="2.42455">
        <ele>579.5</ele>
        <time>2013-09-17T13:29:53Z</time>
      </trkpt>
      <trkpt lat="45.38732" lon="2.42465">
        <ele>579.6</ele>
        <time>2013-09-17T13:29:57Z</time>
      </trkpt>
      <trkpt lat="45.38726" lon="2.42474">
        <ele>579.7</ele>
        <time>2013-09-17T13:30:01Z</time>
      </trkpt>
      <trkpt lat="45.38718" lon="2.42485">
        <ele>579.8</ele>
        <time>2013-09-17T13:30:05Z</time>
      </trkpt>
      <trkpt lat="45.38712" lon="2.42496">
        <ele>579.9</ele>
        <time>2013-09-17T13:30:10Z</time>
      </trkpt>
      <trkpt lat="45.38706" lon="2.42507">
        <ele>580.3</ele>
        <time>2013-09-17T13:30:14Z</time>
      </trkpt>
      <trkpt lat="45.38701" lon="2.42518">
        <ele>580.6</ele>
        <time>2013-09-17T13:30:18Z</time>
      </trkpt>
      <trkpt lat="45.38699" lon="2.4253">
        <ele>579.6</ele>
        <time>2013-09-17T13:30:22Z</time>
      </trkpt>
      <trkpt lat="45.38697" lon="2.42541">
        <ele>578.6</ele>
        <time>2013-09-17T13:30:25Z</time>
      </trkpt>
      <trkpt lat="45.38695" lon="2.42554">
        <ele>577.6</ele>
        <time>2013-09-17T13:30:29Z</time>
      </trkpt>
      <trkpt lat="45.38694" lon="2.42566">
        <ele>576.6</ele>
        <time>2013-09-17T13:30:34Z</time>
      </trkpt>
      <trkpt lat="45.38691" lon="2.4258">
        <ele>576.9</ele>
        <time>2013-09-17T13:30:38Z</time>
      </trkpt>
      <trkpt lat="45.38689" lon="2.42593">
        <ele>577.2</ele>
        <time>2013-09-17T13:30:43Z</time>
      </trkpt>
      <trkpt lat="45.38683" lon="2.42603">
        <ele>577.5</ele>
        <time>2013-09-17T13:30:47Z</time>
      </trkpt>
      <trkpt lat="45.38677" lon="2.42611">
        <ele>578.5</ele>
        <time>2013-09-17T13:30:51Z</time>
      </trkpt>
      <trkpt lat="45.3867" lon="2.42617">
        <ele>579.6</ele>
        <time>2013-09-17T13:30:56Z</time>
      </trkpt>
      <trkpt lat="45.38662" lon="2.42624">
        <ele>580</ele>
        <time>2013-09-17T13:31:01Z</time>
      </trkpt>
      <trkpt lat="45.38653" lon="2.4263">
        <ele>580.4</ele>
        <time>2013-09-17T13:31:06Z</time>
      </trkpt>
      <trkpt lat="45.38645" lon="2.42637">
        <ele>580.7</ele>
        <time>2013-09-17T13:31:10Z</time>
      </trkpt>
      <trkpt lat="45.38637" lon="2.42642">
        <ele>581.1</ele>
        <time>2013-09-17T13:31:14Z</time>
      </trkpt>
      <trkpt lat="45.38632" lon="2.42652">
        <ele>581.5</ele>
        <time>2013-09-17T13:31:17Z</time>
      </trkpt>
      <trkpt lat="45.38628" lon="2.42664">
        <ele>581.8</ele>
        <time>2013-09-17T13:31:20Z</time>
      </trkpt>
      <trkpt lat="45.38619" lon="2.42668">
        <ele>581.7</ele>
        <time>2013-09-17T13:31:25Z</time>
      </trkpt>
      <trkpt lat="45.3861" lon="2.42663">
        <ele>581.6</ele>
        <time>2013-09-17T13:31:30Z</time>
      </trkpt>
      <trkpt lat="45.38603" lon="2.42655">
        <ele>581.5</ele>
        <time>2013-09-17T13:31:36Z</time>
      </trkpt>
      <trkpt lat="45.38594" lon="2.42649">
        <ele>580.6</ele>
        <time>2013-09-17T13:31:40Z</time>
      </trkpt>
      <trkpt lat="45.38587" lon="2.4264">
        <ele>579.5</ele>
        <time>2013-09-17T13:31:46Z</time>
      </trkpt>
      <trkpt lat="45.3858" lon="2.42634">
        <ele>578.9</ele>
        <time>2013-09-17T13:31:50Z</time>
      </trkpt>
      <trkpt lat="45.38569" lon="2.42628">
        <ele>578.3</ele>
        <time>2013-09-17T13:31:54Z</time>
      </trkpt>
      <trkpt lat="45.38561" lon="2.42626">
        <ele>577.6</ele>
        <time>2013-09-17T13:31:57Z</time>
      </trkpt>
      <trkpt lat="45.38552" lon="2.42625">
        <ele>577</ele>
        <time>2013-09-17T13:32:01Z</time>
      </trkpt>
      <trkpt lat="45.38543" lon="2.42622">
        <ele>576.4</ele>
        <time>2013-09-17T13:32:05Z</time>
      </trkpt>
      <trkpt lat="45.38532" lon="2.42624">
        <ele>575.7</ele>
        <time>2013-09-17T13:32:08Z</time>
      </trkpt>
      <trkpt lat="45.38523" lon="2.4263">
        <ele>575.5</ele>
        <time>2013-09-17T13:32:12Z</time>
      </trkpt>
      <trkpt lat="45.38517" lon="2.4264">
        <ele>575.4</ele>
        <time>2013-09-17T13:32:16Z</time>
      </trkpt>
      <trkpt lat="45.3851" lon="2.4265">
        <ele>575.2</ele>
        <time>2013-09-17T13:32:21Z</time>
      </trkpt>
      <trkpt lat="45.38503" lon="2.42659">
        <ele>575</ele>
        <time>2013-09-17T13:32:25Z</time>
      </trkpt>
      <trkpt lat="45.38497" lon="2.42668">
        <ele>575.4</ele>
        <time>2013-09-17T13:32:29Z</time>
      </trkpt>
      <trkpt lat="45.38491" lon="2.42678">
        <ele>575.3</ele>
        <time>2013-09-17T13:32:33Z</time>
      </trkpt>
      <trkpt lat="45.38485" lon="2.42688">
        <ele>575.2</ele>
        <time>2013-09-17T13:32:39Z</time>
      </trkpt>
      <trkpt lat="45.3848" lon="2.42701">
        <ele>575.1</ele>
        <time>2013-09-17T13:32:44Z</time>
      </trkpt>
      <trkpt lat="45.38471" lon="2.42708">
        <ele>575</ele>
        <time>2013-09-17T13:32:47Z</time>
      </trkpt>
      <trkpt lat="45.38467" lon="2.4272">
        <ele>574.9</ele>
        <time>2013-09-17T13:32:50Z</time>
      </trkpt>
      <trkpt lat="45.38463" lon="2.4273">
        <ele>574.8</ele>
        <time>2013-09-17T13:32:53Z</time>
      </trkpt>
      <trkpt lat="45.38455" lon="2.42732">
        <ele>574.7</ele>
        <time>2013-09-17T13:32:56Z</time>
      </trkpt>
      <trkpt lat="45.38446" lon="2.42735">
        <ele>574.6</ele>
        <time>2013-09-17T13:33:00Z</time>
      </trkpt>
      <trkpt lat="45.38435" lon="2.42735">
        <ele>574.5</ele>
        <time>2013-09-17T13:33:04Z</time>
      </trkpt>
      <trkpt lat="45.38423" lon="2.42735">
        <ele>574.5</ele>
        <time>2013-09-17T13:33:09Z</time>
      </trkpt>
      <trkpt lat="45.38415" lon="2.42737">
        <ele>574.3</ele>
        <time>2013-09-17T13:33:12Z</time>
      </trkpt>
      <trkpt lat="45.38406" lon="2.42737">
        <ele>573.7</ele>
        <time>2013-09-17T13:33:16Z</time>
      </trkpt>
      <trkpt lat="45.38397" lon="2.42737">
        <ele>573.2</ele>
        <time>2013-09-17T13:33:20Z</time>
      </trkpt>
      <trkpt lat="45.38388" lon="2.42733">
        <ele>572.6</ele>
        <time>2013-09-17T13:33:25Z</time>
      </trkpt>
      <trkpt lat="45.38382" lon="2.42725">
        <ele>572.1</ele>
        <time>2013-09-17T13:33:31Z</time>
      </trkpt>
      <trkpt lat="45.38373" lon="2.4272">
        <ele>571.5</ele>
        <time>2013-09-17T13:33:35Z</time>
      </trkpt>
      <trkpt lat="45.38366" lon="2.42711">
        <ele>571</ele>
        <time>2013-09-17T13:33:39Z</time>
      </trkpt>
      <trkpt lat="45.3836" lon="2.42702">
        <ele>570.5</ele>
        <time>2013-09-17T13:33:43Z</time>
      </trkpt>
      <trkpt lat="45.38355" lon="2.42691">
        <ele>569.9</ele>
        <time>2013-09-17T13:33:47Z</time>
      </trkpt>
      <trkpt lat="45.3835" lon="2.4268">
        <ele>568.9</ele>
        <time>2013-09-17T13:33:51Z</time>
      </trkpt>
      <trkpt lat="45.38343" lon="2.42668">
        <ele>567.9</ele>
        <time>2013-09-17T13:33:55Z</time>
      </trkpt>
      <trkpt lat="45.38338" lon="2.42658">
        <ele>566.6</ele>
        <time>2013-09-17T13:33:59Z</time>
      </trkpt>
      <trkpt lat="45.38333" lon="2.42646">
        <ele>566.4</ele>
        <time>2013-09-17T13:34:04Z</time>
      </trkpt>
      <trkpt lat="45.38323" lon="2.42639">
        <ele>566.1</ele>
        <time>2013-09-17T13:34:08Z</time>
      </trkpt>
      <trkpt lat="45.38314" lon="2.42633">
        <ele>565.8</ele>
        <time>2013-09-17T13:34:12Z</time>
      </trkpt>
      <trkpt lat="45.38305" lon="2.42627">
        <ele>565.5</ele>
        <time>2013-09-17T13:34:16Z</time>
      </trkpt>
      <trkpt lat="45.38297" lon="2.42624">
        <ele>565.3</ele>
        <time>2013-09-17T13:34:20Z</time>
      </trkpt>
      <trkpt lat="45.3829" lon="2.42618">
        <ele>565</ele>
        <time>2013-09-17T13:34:24Z</time>
      </trkpt>
      <trkpt lat="45.38282" lon="2.42612">
        <ele>564.7</ele>
        <time>2013-09-17T13:34:28Z</time>
      </trkpt>
      <trkpt lat="45.38273" lon="2.42605">
        <ele>564.5</ele>
        <time>2013-09-17T13:34:33Z</time>
      </trkpt>
      <trkpt lat="45.38265" lon="2.426">
        <ele>564.6</ele>
        <time>2013-09-17T13:34:37Z</time>
      </trkpt>
      <trkpt lat="45.38257" lon="2.42596">
        <ele>564.7</ele>
        <time>2013-09-17T13:34:41Z</time>
      </trkpt>
      <trkpt lat="45.38249" lon="2.42589">
        <ele>564.8</ele>
        <time>2013-09-17T13:34:45Z</time>
      </trkpt>
      <trkpt lat="45.38241" lon="2.42581">
        <ele>564.7</ele>
        <time>2013-09-17T13:34:49Z</time>
      </trkpt>
      <trkpt lat="45.38234" lon="2.42572">
        <ele>565.1</ele>
        <time>2013-09-17T13:34:53Z</time>
      </trkpt>
      <trkpt lat="45.38229" lon="2.42562">
        <ele>565.5</ele>
        <time>2013-09-17T13:34:57Z</time>
      </trkpt>
      <trkpt lat="45.38225" lon="2.42552">
        <ele>565.8</ele>
        <time>2013-09-17T13:35:01Z</time>
      </trkpt>
      <trkpt lat="45.38219" lon="2.42538">
        <ele>566.2</ele>
        <time>2013-09-17T13:35:07Z</time>
      </trkpt>
      <trkpt lat="45.38214" lon="2.42528">
        <ele>566.5</ele>
        <time>2013-09-17T13:35:12Z</time>
      </trkpt>
      <trkpt lat="45.38209" lon="2.42515">
        <ele>567.1</ele>
        <time>2013-09-17T13:35:17Z</time>
      </trkpt>
      <trkpt lat="45.38203" lon="2.42501">
        <ele>567.6</ele>
        <time>2013-09-17T13:35:23Z</time>
      </trkpt>
      <trkpt lat="45.38197" lon="2.42489">
        <ele>568.2</ele>
        <time>2013-09-17T13:35:28Z</time>
      </trkpt>
      <trkpt lat="45.38191" lon="2.42477">
        <ele>568.8</ele>
        <time>2013-09-17T13:35:33Z</time>
      </trkpt>
      <trkpt lat="45.38187" lon="2.42466">
        <ele>569.5</ele>
        <time>2013-09-17T13:35:38Z</time>
      </trkpt>
      <trkpt lat="45.38181" lon="2.42455">
        <ele>570.1</ele>
        <time>2013-09-17T13:35:43Z</time>
      </trkpt>
      <trkpt lat="45.38176" lon="2.42445">
        <ele>570.3</ele>
        <time>2013-09-17T13:35:47Z</time>
      </trkpt>
      <trkpt lat="45.38171" lon="2.42433">
        <ele>570.5</ele>
        <time>2013-09-17T13:35:52Z</time>
      </trkpt>
      <trkpt lat="45.38166" lon="2.42421">
        <ele>570.9</ele>
        <time>2013-09-17T13:35:57Z</time>
      </trkpt>
      <trkpt lat="45.38159" lon="2.42411">
        <ele>571.6</ele>
        <time>2013-09-17T13:36:02Z</time>
      </trkpt>
      <trkpt lat="45.38153" lon="2.424">
        <ele>572.4</ele>
        <time>2013-09-17T13:36:07Z</time>
      </trkpt>
      <trkpt lat="45.38147" lon="2.4239">
        <ele>572.9</ele>
        <time>2013-09-17T13:36:12Z</time>
      </trkpt>
      <trkpt lat="45.3814" lon="2.42383">
        <ele>573.5</ele>
        <time>2013-09-17T13:36:16Z</time>
      </trkpt>
      <trkpt lat="45.38132" lon="2.42376">
        <ele>574</ele>
        <time>2013-09-17T13:36:21Z</time>
      </trkpt>
      <trkpt lat="45.38125" lon="2.42368">
        <ele>574.5</ele>
        <time>2013-09-17T13:36:26Z</time>
      </trkpt>
      <trkpt lat="45.38117" lon="2.42359">
        <ele>575.1</ele>
        <time>2013-09-17T13:36:31Z</time>
      </trkpt>
      <trkpt lat="45.38109" lon="2.4235">
        <ele>575.6</ele>
        <time>2013-09-17T13:36:36Z</time>
      </trkpt>
      <trkpt lat="45.38102" lon="2.42342">
        <ele>576.2</ele>
        <time>2013-09-17T13:36:41Z</time>
      </trkpt>
      <trkpt lat="45.38095" lon="2.42335">
        <ele>576.7</ele>
        <time>2013-09-17T13:36:46Z</time>
      </trkpt>
      <trkpt lat="45.38088" lon="2.42328">
        <ele>577</ele>
        <time>2013-09-17T13:36:51Z</time>
      </trkpt>
      <trkpt lat="45.38079" lon="2.42321">
        <ele>577.2</ele>
        <time>2013-09-17T13:36:56Z</time>
      </trkpt>
      <trkpt lat="45.38072" lon="2.42315">
        <ele>577.6</ele>
        <time>2013-09-17T13:37:01Z</time>
      </trkpt>
      <trkpt lat="45.38064" lon="2.4231">
        <ele>578.1</ele>
        <time>2013-09-17T13:37:06Z</time>
      </trkpt>
      <trkpt lat="45.38057" lon="2.42304">
        <ele>578.5</ele>
        <time>2013-09-17T13:37:11Z</time>
      </trkpt>
      <trkpt lat="45.38048" lon="2.42299">
        <ele>579</ele>
        <time>2013-09-17T13:37:16Z</time>
      </trkpt>
      <trkpt lat="45.38039" lon="2.42296">
        <ele>579.5</ele>
        <time>2013-09-17T13:37:21Z</time>
      </trkpt>
      <trkpt lat="45.3803" lon="2.4229">
        <ele>579.9</ele>
        <time>2013-09-17T13:37:27Z</time>
      </trkpt>
      <trkpt lat="45.38022" lon="2.42285">
        <ele>580.4</ele>
        <time>2013-09-17T13:37:32Z</time>
      </trkpt>
      <trkpt lat="45.38014" lon="2.42279">
        <ele>580.8</ele>
        <time>2013-09-17T13:37:37Z</time>
      </trkpt>
      <trkpt lat="45.38006" lon="2.42273">
        <ele>581.3</ele>
        <time>2013-09-17T13:37:42Z</time>
      </trkpt>
      <trkpt lat="45.37998" lon="2.42265">
        <ele>582.1</ele>
        <time>2013-09-17T13:37:47Z</time>
      </trkpt>
      <trkpt lat="45.3799" lon="2.42259">
        <ele>582.7</ele>
        <time>2013-09-17T13:37:52Z</time>
      </trkpt>
      <trkpt lat="45.37982" lon="2.42253">
        <ele>583.1</ele>
        <time>2013-09-17T13:37:57Z</time>
      </trkpt>
      <trkpt lat="45.37974" lon="2.42246">
        <ele>583.5</ele>
        <time>2013-09-17T13:38:02Z</time>
      </trkpt>
      <trkpt lat="45.37967" lon="2.42238">
        <ele>583.7</ele>
        <time>2013-09-17T13:38:08Z</time>
      </trkpt>
      <trkpt lat="45.3796" lon="2.42232">
        <ele>584</ele>
        <time>2013-09-17T13:38:12Z</time>
      </trkpt>
      <trkpt lat="45.37953" lon="2.42227">
        <ele>584.3</ele>
        <time>2013-09-17T13:38:16Z</time>
      </trkpt>
      <trkpt lat="45.37946" lon="2.4222">
        <ele>584.5</ele>
        <time>2013-09-17T13:38:21Z</time>
      </trkpt>
      <trkpt lat="45.37939" lon="2.42214">
        <ele>584.8</ele>
        <time>2013-09-17T13:38:25Z</time>
      </trkpt>
      <trkpt lat="45.3793" lon="2.42208">
        <ele>585.1</ele>
        <time>2013-09-17T13:38:30Z</time>
      </trkpt>
      <trkpt lat="45.37922" lon="2.42201">
        <ele>585.4</ele>
        <time>2013-09-17T13:38:35Z</time>
      </trkpt>
      <trkpt lat="45.37914" lon="2.42196">
        <ele>586.1</ele>
        <time>2013-09-17T13:38:40Z</time>
      </trkpt>
      <trkpt lat="45.37906" lon="2.42191">
        <ele>586.8</ele>
        <time>2013-09-17T13:38:46Z</time>
      </trkpt>
      <trkpt lat="45.37897" lon="2.42186">
        <ele>587.5</ele>
        <time>2013-09-17T13:38:52Z</time>
      </trkpt>
      <trkpt lat="45.37888" lon="2.4218">
        <ele>588.3</ele>
        <time>2013-09-17T13:38:58Z</time>
      </trkpt>
      <trkpt lat="45.3788" lon="2.42178">
        <ele>589.1</ele>
        <time>2013-09-17T13:39:02Z</time>
      </trkpt>
      <trkpt lat="45.37872" lon="2.42171">
        <ele>589.9</ele>
        <time>2013-09-17T13:39:07Z</time>
      </trkpt>
      <trkpt lat="45.37863" lon="2.42165">
        <ele>590.7</ele>
        <time>2013-09-17T13:39:12Z</time>
      </trkpt>
      <trkpt lat="45.37855" lon="2.42159">
        <ele>590.8</ele>
        <time>2013-09-17T13:39:17Z</time>
      </trkpt>
      <trkpt lat="45.37845" lon="2.42153">
        <ele>590.9</ele>
        <time>2013-09-17T13:39:22Z</time>
      </trkpt>
      <trkpt lat="45.37836" lon="2.42148">
        <ele>591</ele>
        <time>2013-09-17T13:39:26Z</time>
      </trkpt>
      <trkpt lat="45.37827" lon="2.42141">
        <ele>591.7</ele>
        <time>2013-09-17T13:39:31Z</time>
      </trkpt>
      <trkpt lat="45.3782" lon="2.42134">
        <ele>591.6</ele>
        <time>2013-09-17T13:39:35Z</time>
      </trkpt>
      <trkpt lat="45.37812" lon="2.42129">
        <ele>591.5</ele>
        <time>2013-09-17T13:39:39Z</time>
      </trkpt>
      <trkpt lat="45.37804" lon="2.4212">
        <ele>591.5</ele>
        <time>2013-09-17T13:39:44Z</time>
      </trkpt>
      <trkpt lat="45.37795" lon="2.42113">
        <ele>591.4</ele>
        <time>2013-09-17T13:39:49Z</time>
      </trkpt>
      <trkpt lat="45.37787" lon="2.42106">
        <ele>591.3</ele>
        <time>2013-09-17T13:39:53Z</time>
      </trkpt>
      <trkpt lat="45.37779" lon="2.42099">
        <ele>591.2</ele>
        <time>2013-09-17T13:39:58Z</time>
      </trkpt>
      <trkpt lat="45.3777" lon="2.42097">
        <ele>591.1</ele>
        <time>2013-09-17T13:40:03Z</time>
      </trkpt>
      <trkpt lat="45.3776" lon="2.42096">
        <ele>591.7</ele>
        <time>2013-09-17T13:40:07Z</time>
      </trkpt>
      <trkpt lat="45.37751" lon="2.42098">
        <ele>592.7</ele>
        <time>2013-09-17T13:40:11Z</time>
      </trkpt>
      <trkpt lat="45.37741" lon="2.42103">
        <ele>593.7</ele>
        <time>2013-09-17T13:40:17Z</time>
      </trkpt>
      <trkpt lat="45.37733" lon="2.42107">
        <ele>594.1</ele>
        <time>2013-09-17T13:40:20Z</time>
      </trkpt>
      <trkpt lat="45.37724" lon="2.42112">
        <ele>594.5</ele>
        <time>2013-09-17T13:40:24Z</time>
      </trkpt>
      <trkpt lat="45.37716" lon="2.42116">
        <ele>594.8</ele>
        <time>2013-09-17T13:40:28Z</time>
      </trkpt>
      <trkpt lat="45.37706" lon="2.42117">
        <ele>595.2</ele>
        <time>2013-09-17T13:40:32Z</time>
      </trkpt>
      <trkpt lat="45.37697" lon="2.42117">
        <ele>595.5</ele>
        <time>2013-09-17T13:40:37Z</time>
      </trkpt>
      <trkpt lat="45.37687" lon="2.42112">
        <ele>595.9</ele>
        <time>2013-09-17T13:40:43Z</time>
      </trkpt>
      <trkpt lat="45.37679" lon="2.42105">
        <ele>596.3</ele>
        <time>2013-09-17T13:40:48Z</time>
      </trkpt>
      <trkpt lat="45.37671" lon="2.42097">
        <ele>596.6</ele>
        <time>2013-09-17T13:40:54Z</time>
      </trkpt>
      <trkpt lat="45.37663" lon="2.42089">
        <ele>597.3</ele>
        <time>2013-09-17T13:40:59Z</time>
      </trkpt>
      <trkpt lat="45.37655" lon="2.42084">
        <ele>597.5</ele>
        <time>2013-09-17T13:41:04Z</time>
      </trkpt>
      <trkpt lat="45.37647" lon="2.42077">
        <ele>597.8</ele>
        <time>2013-09-17T13:41:10Z</time>
      </trkpt>
      <trkpt lat="45.37639" lon="2.42074">
        <ele>598.1</ele>
        <time>2013-09-17T13:41:15Z</time>
      </trkpt>
      <trkpt lat="45.3763" lon="2.42068">
        <ele>598.4</ele>
        <time>2013-09-17T13:41:20Z</time>
      </trkpt>
      <trkpt lat="45.37622" lon="2.42063">
        <ele>598.5</ele>
        <time>2013-09-17T13:41:25Z</time>
      </trkpt>
      <trkpt lat="45.37614" lon="2.42059">
        <ele>598.5</ele>
        <time>2013-09-17T13:41:30Z</time>
      </trkpt>
      <trkpt lat="45.37605" lon="2.42056">
        <ele>598.6</ele>
        <time>2013-09-17T13:41:34Z</time>
      </trkpt>
      <trkpt lat="45.37597" lon="2.42053">
        <ele>598.7</ele>
        <time>2013-09-17T13:41:37Z</time>
      </trkpt>
      <trkpt lat="45.37588" lon="2.42051">
        <ele>598.8</ele>
        <time>2013-09-17T13:41:42Z</time>
      </trkpt>
      <trkpt lat="45.3758" lon="2.42046">
        <ele>598.9</ele>
        <time>2013-09-17T13:41:46Z</time>
      </trkpt>
      <trkpt lat="45.37573" lon="2.4204">
        <ele>598.7</ele>
        <time>2013-09-17T13:41:50Z</time>
      </trkpt>
      <trkpt lat="45.37566" lon="2.4203">
        <ele>598.5</ele>
        <time>2013-09-17T13:41:54Z</time>
      </trkpt>
      <trkpt lat="45.37562" lon="2.42017">
        <ele>598.4</ele>
        <time>2013-09-17T13:41:59Z</time>
      </trkpt>
      <trkpt lat="45.37554" lon="2.42008">
        <ele>598.2</ele>
        <time>2013-09-17T13:42:04Z</time>
      </trkpt>
      <trkpt lat="45.37546" lon="2.41998">
        <ele>598</ele>
        <time>2013-09-17T13:42:09Z</time>
      </trkpt>
      <trkpt lat="45.3754" lon="2.41988">
        <ele>598</ele>
        <time>2013-09-17T13:42:13Z</time>
      </trkpt>
      <trkpt lat="45.37534" lon="2.41976">
        <ele>598</ele>
        <time>2013-09-17T13:42:18Z</time>
      </trkpt>
      <trkpt lat="45.37527" lon="2.41965">
        <ele>598</ele>
        <time>2013-09-17T13:42:22Z</time>
      </trkpt>
      <trkpt lat="45.37521" lon="2.41955">
        <ele>598</ele>
        <time>2013-09-17T13:42:26Z</time>
      </trkpt>
      <trkpt lat="45.37515" lon="2.41944">
        <ele>598</ele>
        <time>2013-09-17T13:42:30Z</time>
      </trkpt>
      <trkpt lat="45.37498" lon="2.41918">
        <ele>598</ele>
        <time>2013-09-17T13:42:41Z</time>
      </trkpt>
      <trkpt lat="45.37493" lon="2.41905">
        <ele>598</ele>
        <time>2013-09-17T13:42:46Z</time>
      </trkpt>
      <trkpt lat="45.3749" lon="2.41894">
        <ele>598</ele>
        <time>2013-09-17T13:42:51Z</time>
      </trkpt>
      <trkpt lat="45.37486" lon="2.41882">
        <ele>597.9</ele>
        <time>2013-09-17T13:42:55Z</time>
      </trkpt>
      <trkpt lat="45.37482" lon="2.41872">
        <ele>597.8</ele>
        <time>2013-09-17T13:42:59Z</time>
      </trkpt>
      <trkpt lat="45.37477" lon="2.41859">
        <ele>597.7</ele>
        <time>2013-09-17T13:43:03Z</time>
      </trkpt>
      <trkpt lat="45.37474" lon="2.41846">
        <ele>597.4</ele>
        <time>2013-09-17T13:43:07Z</time>
      </trkpt>
      <trkpt lat="45.37469" lon="2.41835">
        <ele>597</ele>
        <time>2013-09-17T13:43:11Z</time>
      </trkpt>
      <trkpt lat="45.37465" lon="2.41825">
        <ele>596.6</ele>
        <time>2013-09-17T13:43:15Z</time>
      </trkpt>
      <trkpt lat="45.37457" lon="2.41815">
        <ele>596.3</ele>
        <time>2013-09-17T13:43:19Z</time>
      </trkpt>
      <trkpt lat="45.37451" lon="2.41805">
        <ele>595.9</ele>
        <time>2013-09-17T13:43:23Z</time>
      </trkpt>
      <trkpt lat="45.37445" lon="2.41796">
        <ele>595.5</ele>
        <time>2013-09-17T13:43:27Z</time>
      </trkpt>
      <trkpt lat="45.37439" lon="2.41786">
        <ele>595.2</ele>
        <time>2013-09-17T13:43:31Z</time>
      </trkpt>
      <trkpt lat="45.37433" lon="2.41776">
        <ele>594.8</ele>
        <time>2013-09-17T13:43:35Z</time>
      </trkpt>
      <trkpt lat="45.37428" lon="2.41764">
        <ele>594.5</ele>
        <time>2013-09-17T13:43:40Z</time>
      </trkpt>
      <trkpt lat="45.37424" lon="2.41753">
        <ele>594.1</ele>
        <time>2013-09-17T13:43:45Z</time>
      </trkpt>
      <trkpt lat="45.37421" lon="2.41742">
        <ele>593.7</ele>
        <time>2013-09-17T13:43:50Z</time>
      </trkpt>
      <trkpt lat="45.37415" lon="2.41733">
        <ele>593.8</ele>
        <time>2013-09-17T13:43:55Z</time>
      </trkpt>
      <trkpt lat="45.3741" lon="2.41722">
        <ele>593.9</ele>
        <time>2013-09-17T13:44:00Z</time>
      </trkpt>
      <trkpt lat="45.37402" lon="2.41713">
        <ele>594</ele>
        <time>2013-09-17T13:44:04Z</time>
      </trkpt>
      <trkpt lat="45.37393" lon="2.41704">
        <ele>594.1</ele>
        <time>2013-09-17T13:44:08Z</time>
      </trkpt>
      <trkpt lat="45.37384" lon="2.41695">
        <ele>594.2</ele>
        <time>2013-09-17T13:44:12Z</time>
      </trkpt>
      <trkpt lat="45.37376" lon="2.41688">
        <ele>594.3</ele>
        <time>2013-09-17T13:44:15Z</time>
      </trkpt>
      <trkpt lat="45.37369" lon="2.41678">
        <ele>595.4</ele>
        <time>2013-09-17T13:44:19Z</time>
      </trkpt>
      <trkpt lat="45.37362" lon="2.4167">
        <ele>596.5</ele>
        <time>2013-09-17T13:44:23Z</time>
      </trkpt>
      <trkpt lat="45.37356" lon="2.41662">
        <ele>597.6</ele>
        <time>2013-09-17T13:44:28Z</time>
      </trkpt>
      <trkpt lat="45.3735" lon="2.41653">
        <ele>598.8</ele>
        <time>2013-09-17T13:44:33Z</time>
      </trkpt>
      <trkpt lat="45.37343" lon="2.41645">
        <ele>600</ele>
        <time>2013-09-17T13:44:37Z</time>
      </trkpt>
      <trkpt lat="45.37338" lon="2.41634">
        <ele>601</ele>
        <time>2013-09-17T13:44:43Z</time>
      </trkpt>
      <trkpt lat="45.37332" lon="2.41624">
        <ele>602</ele>
        <time>2013-09-17T13:44:48Z</time>
      </trkpt>
      <trkpt lat="45.37325" lon="2.41617">
        <ele>602.8</ele>
        <time>2013-09-17T13:44:53Z</time>
      </trkpt>
      <trkpt lat="45.37318" lon="2.41607">
        <ele>603.6</ele>
        <time>2013-09-17T13:44:58Z</time>
      </trkpt>
      <trkpt lat="45.37311" lon="2.416">
        <ele>604.5</ele>
        <time>2013-09-17T13:45:02Z</time>
      </trkpt>
      <trkpt lat="45.37305" lon="2.41592">
        <ele>605.3</ele>
        <time>2013-09-17T13:45:06Z</time>
      </trkpt>
      <trkpt lat="45.37298" lon="2.41586">
        <ele>605.1</ele>
        <time>2013-09-17T13:45:10Z</time>
      </trkpt>
      <trkpt lat="45.3729" lon="2.41578">
        <ele>605</ele>
        <time>2013-09-17T13:45:15Z</time>
      </trkpt>
      <trkpt lat="45.37282" lon="2.41572">
        <ele>604.9</ele>
        <time>2013-09-17T13:45:20Z</time>
      </trkpt>
      <trkpt lat="45.37273" lon="2.41567">
        <ele>604.8</ele>
        <time>2013-09-17T13:45:25Z</time>
      </trkpt>
      <trkpt lat="45.37263" lon="2.41563">
        <ele>604.7</ele>
        <time>2013-09-17T13:45:31Z</time>
      </trkpt>
      <trkpt lat="45.37256" lon="2.41556">
        <ele>604.8</ele>
        <time>2013-09-17T13:45:36Z</time>
      </trkpt>
      <trkpt lat="45.37246" lon="2.41552">
        <ele>604.9</ele>
        <time>2013-09-17T13:45:41Z</time>
      </trkpt>
      <trkpt lat="45.37238" lon="2.4155">
        <ele>605.2</ele>
        <time>2013-09-17T13:45:46Z</time>
      </trkpt>
      <trkpt lat="45.37228" lon="2.41546">
        <ele>605.5</ele>
        <time>2013-09-17T13:45:51Z</time>
      </trkpt>
      <trkpt lat="45.37219" lon="2.41542">
        <ele>605.7</ele>
        <time>2013-09-17T13:45:56Z</time>
      </trkpt>
      <trkpt lat="45.37209" lon="2.41538">
        <ele>606</ele>
        <time>2013-09-17T13:46:02Z</time>
      </trkpt>
      <trkpt lat="45.372" lon="2.41535">
        <ele>606.3</ele>
        <time>2013-09-17T13:46:06Z</time>
      </trkpt>
      <trkpt lat="45.3719" lon="2.41533">
        <ele>606.5</ele>
        <time>2013-09-17T13:46:10Z</time>
      </trkpt>
      <trkpt lat="45.37182" lon="2.4153">
        <ele>606.6</ele>
        <time>2013-09-17T13:46:14Z</time>
      </trkpt>
      <trkpt lat="45.37173" lon="2.41531">
        <ele>607.1</ele>
        <time>2013-09-17T13:46:18Z</time>
      </trkpt>
      <trkpt lat="45.37163" lon="2.41528">
        <ele>607.5</ele>
        <time>2013-09-17T13:46:23Z</time>
      </trkpt>
      <trkpt lat="45.37153" lon="2.41526">
        <ele>607.8</ele>
        <time>2013-09-17T13:46:26Z</time>
      </trkpt>
      <trkpt lat="45.37144" lon="2.41525">
        <ele>608.1</ele>
        <time>2013-09-17T13:46:29Z</time>
      </trkpt>
      <trkpt lat="45.37136" lon="2.41525">
        <ele>608.4</ele>
        <time>2013-09-17T13:46:33Z</time>
      </trkpt>
      <trkpt lat="45.37127" lon="2.41523">
        <ele>608.6</ele>
        <time>2013-09-17T13:46:38Z</time>
      </trkpt>
      <trkpt lat="45.37117" lon="2.41521">
        <ele>608.9</ele>
        <time>2013-09-17T13:46:42Z</time>
      </trkpt>
      <trkpt lat="45.37107" lon="2.4152">
        <ele>609.2</ele>
        <time>2013-09-17T13:46:47Z</time>
      </trkpt>
      <trkpt lat="45.37098" lon="2.41517">
        <ele>609.5</ele>
        <time>2013-09-17T13:46:51Z</time>
      </trkpt>
      <trkpt lat="45.37089" lon="2.41515">
        <ele>609.7</ele>
        <time>2013-09-17T13:46:55Z</time>
      </trkpt>
      <trkpt lat="45.3708" lon="2.41515">
        <ele>610</ele>
        <time>2013-09-17T13:46:59Z</time>
      </trkpt>
      <trkpt lat="45.37071" lon="2.41513">
        <ele>610</ele>
        <time>2013-09-17T13:47:04Z</time>
      </trkpt>
      <trkpt lat="45.37059" lon="2.41516">
        <ele>610</ele>
        <time>2013-09-17T13:47:09Z</time>
      </trkpt>
      <trkpt lat="45.3705" lon="2.41514">
        <ele>610</ele>
        <time>2013-09-17T13:47:16Z</time>
      </trkpt>
    </trkseg>
  </trk>
</gpx>